sensor_id;sensor_type;location;lat;lon;timestamp;pressure;altitude;pressure_sealevel;temperature
6498;BMP280;3282;48.358;10.958;2022-08-01T00:00:04;96278.22;;;22.51
6498;BMP280;3282;48.358;10.958;2022-08-01T00:02:31;96274.72;;;22.51
6498;BMP280;3282;48.358;10.958;2022-08-01T00:04:58;96277.47;;;22.51
6498;BMP280;3282;48.358;10.958;2022-08-01T00:07:26;96270.81;;;22.52
6498;BMP280;3282;48.358;10.958;2022-08-01T00:09:53;96280.06;;;22.54
6498;BMP280;3282;48.358;10.958;2022-08-01T00:12:19;96276.16;;;22.55
6498;BMP280;3282;48.358;10.958;2022-08-01T00:14:46;96272.66;;;22.55
6498;BMP280;3282;48.358;10.958;2022-08-01T00:17:12;96276.47;;;22.57
6498;BMP280;3282;48.358;10.958;2022-08-01T00:19:39;96276.03;;;22.59
6498;BMP280;3282;48.358;10.958;2022-08-01T00:22:06;96279.06;;;22.61
6498;BMP280;3282;48.358;10.958;2022-08-01T00:24:33;96282.88;;;22.64
6498;BMP280;3282;48.358;10.958;2022-08-01T00:26:59;96279.06;;;22.61
6498;BMP280;3282;48.358;10.958;2022-08-01T00:29:26;96280.91;;;22.64
6498;BMP280;3282;48.358;10.958;2022-08-01T00:32:12;96277.28;;;22.67
6498;BMP280;3282;48.358;10.958;2022-08-01T00:34:39;96276.53;;;22.67
6498;BMP280;3282;48.358;10.958;2022-08-01T00:37:05;96279.88;;;22.71
6498;BMP280;3282;48.358;10.958;2022-08-01T00:39:32;96280.19;;;22.73
6498;BMP280;3282;48.358;10.958;2022-08-01T00:42:01;96277.03;;;22.75
6498;BMP280;3282;48.358;10.958;2022-08-01T00:44:32;96275.53;;;22.74
6498;BMP280;3282;48.358;10.958;2022-08-01T00:46:58;96274.88;;;22.69
6498;BMP280;3282;48.358;10.958;2022-08-01T00:49:25;96278.84;;;22.68
6498;BMP280;3282;48.358;10.958;2022-08-01T00:51:52;96279.88;;;22.71
6498;BMP280;3282;48.358;10.958;2022-08-01T00:54:18;96277.28;;;22.67
6498;BMP280;3282;48.358;10.958;2022-08-01T00:56:45;96271.97;;;22.64
6498;BMP280;3282;48.358;10.958;2022-08-01T00:59:12;96280.59;;;22.62
6498;BMP280;3282;48.358;10.958;2022-08-01T01:01:40;96269.03;;;22.58
6498;BMP280;3282;48.358;10.958;2022-08-01T01:04:12;96275.13;;;22.62
6498;BMP280;3282;48.358;10.958;2022-08-01T01:06:45;96261.75;;;22.55
6498;BMP280;3282;48.358;10.958;2022-08-01T01:14:59;96274.81;;;22.60
6498;BMP280;3282;48.358;10.958;2022-08-01T01:17:32;96274.81;;;22.60
6498;BMP280;3282;48.358;10.958;2022-08-01T01:20:17;96278.41;;;22.57
6498;BMP280;3282;48.358;10.958;2022-08-01T01:31:14;96275.63;;;22.48
6498;BMP280;3282;48.358;10.958;2022-08-01T01:33:44;96271.03;;;22.44
6498;BMP280;3282;48.358;10.958;2022-08-01T01:36:14;96280.44;;;22.43
6498;BMP280;3282;48.358;10.958;2022-08-01T01:38:44;96276.63;;;22.41
6498;BMP280;3282;48.358;10.958;2022-08-01T01:41:13;96277.09;;;22.39
6498;BMP280;3282;48.358;10.958;2022-08-01T01:43:40;96281.44;;;22.37
6498;BMP280;3282;48.358;10.958;2022-08-01T01:46:09;96281.13;;;22.35
6498;BMP280;3282;48.358;10.958;2022-08-01T01:48:38;96284.75;;;22.31
6498;BMP280;3282;48.358;10.958;2022-08-01T01:51:05;96277.00;;;22.30
6498;BMP280;3282;48.358;10.958;2022-08-01T01:53:34;96273.19;;;22.27
6498;BMP280;3282;48.358;10.958;2022-08-01T01:56:02;96280.28;;;22.25
6498;BMP280;3282;48.358;10.958;2022-08-01T01:58:31;96269.63;;;22.17
6498;BMP280;3282;48.358;10.958;2022-08-01T02:01:00;96284.88;;;22.15
6498;BMP280;3282;48.358;10.958;2022-08-01T02:03:30;96272.16;;;22.12
6498;BMP280;3282;48.358;10.958;2022-08-01T02:05:58;96275.75;;;22.09
6498;BMP280;3282;48.358;10.958;2022-08-01T02:08:27;96274.97;;;22.08
6498;BMP280;3282;48.358;10.958;2022-08-01T02:10:58;96280.09;;;22.06
6498;BMP280;3282;48.358;10.958;2022-08-01T02:13:56;96289.47;;;22.05
6498;BMP280;3282;48.358;10.958;2022-08-01T02:16:27;96289.59;;;22.01
6498;BMP280;3282;48.358;10.958;2022-08-01T02:18:55;96282.72;;;21.97
6498;BMP280;3282;48.358;10.958;2022-08-01T02:21:28;96289.84;;;21.94
6498;BMP280;3282;48.358;10.958;2022-08-01T02:24:01;96295.50;;;21.87
6498;BMP280;3282;48.358;10.958;2022-08-01T02:26:31;96295.91;;;21.85
6498;BMP280;3282;48.358;10.958;2022-08-01T02:29:06;96301.03;;;21.83
6498;BMP280;3282;48.358;10.958;2022-08-01T02:31:35;96305.75;;;21.83
6498;BMP280;3282;48.358;10.958;2022-08-01T02:34:10;96300.38;;;21.79
6498;BMP280;3282;48.358;10.958;2022-08-01T02:36:38;96301.28;;;21.76
6498;BMP280;3282;48.358;10.958;2022-08-01T02:39:09;96306.72;;;21.76
6498;BMP280;3282;48.358;10.958;2022-08-01T02:41:40;96302.13;;;21.73
6498;BMP280;3282;48.358;10.958;2022-08-01T02:44:11;96301.16;;;21.67
6498;BMP280;3282;48.358;10.958;2022-08-01T02:46:44;96300.84;;;21.64
6498;BMP280;3282;48.358;10.958;2022-08-01T02:49:12;96300.16;;;21.60
6498;BMP280;3282;48.358;10.958;2022-08-01T02:51:40;96300.72;;;21.55
6498;BMP280;3282;48.358;10.958;2022-08-01T02:54:10;96302.75;;;21.51
6498;BMP280;3282;48.358;10.958;2022-08-01T02:56:38;96306.03;;;21.46
6498;BMP280;3282;48.358;10.958;2022-08-01T02:59:11;96303.88;;;21.41
6498;BMP280;3282;48.358;10.958;2022-08-01T03:01:40;96305.81;;;21.40
6498;BMP280;3282;48.358;10.958;2022-08-01T03:04:10;96300.91;;;21.35
6498;BMP280;3282;48.358;10.958;2022-08-01T03:06:38;96313.09;;;21.30
6498;BMP280;3282;48.358;10.958;2022-08-01T03:09:10;96306.09;;;21.29
6498;BMP280;3282;48.358;10.958;2022-08-01T03:11:38;96308.50;;;21.27
6498;BMP280;3282;48.358;10.958;2022-08-01T03:14:07;96302.91;;;21.18
6498;BMP280;3282;48.358;10.958;2022-08-01T03:16:38;96310.59;;;21.23
6498;BMP280;3282;48.358;10.958;2022-08-01T03:19:07;96305.97;;;21.20
6498;BMP280;3282;48.358;10.958;2022-08-01T03:21:35;96319.25;;;21.18
6498;BMP280;3282;48.358;10.958;2022-08-01T03:24:03;96325.09;;;21.16
6498;BMP280;3282;48.358;10.958;2022-08-01T03:26:33;96322.84;;;21.15
6498;BMP280;3282;48.358;10.958;2022-08-01T03:29:10;96330.34;;;21.10
6498;BMP280;3282;48.358;10.958;2022-08-01T03:31:38;96326.72;;;21.01
6498;BMP280;3282;48.358;10.958;2022-08-01T03:34:09;96324.88;;;20.98
6498;BMP280;3282;48.358;10.958;2022-08-01T03:36:43;96323.06;;;20.91
6498;BMP280;3282;48.358;10.958;2022-08-01T03:39:16;96324.38;;;20.86
6498;BMP280;3282;48.358;10.958;2022-08-01T03:41:49;96326.50;;;20.78
6498;BMP280;3282;48.358;10.958;2022-08-01T03:44:25;96325.81;;;20.74
6498;BMP280;3282;48.358;10.958;2022-08-01T03:47:02;96336.06;;;20.70
6498;BMP280;3282;48.358;10.958;2022-08-01T03:49:33;96336.25;;;20.63
6498;BMP280;3282;48.358;10.958;2022-08-01T03:52:03;96341.06;;;20.55
6498;BMP280;3282;48.358;10.958;2022-08-01T03:54:33;96337.09;;;20.43
6498;BMP280;3282;48.358;10.958;2022-08-01T03:57:01;96334.88;;;20.38
6498;BMP280;3282;48.358;10.958;2022-08-01T03:59:29;96338.88;;;20.33
6498;BMP280;3282;48.358;10.958;2022-08-01T04:01:57;96348.63;;;20.30
6498;BMP280;3282;48.358;10.958;2022-08-01T04:04:24;96344.56;;;20.22
6498;BMP280;3282;48.358;10.958;2022-08-01T04:06:51;96344.91;;;20.24
6498;BMP280;3282;48.358;10.958;2022-08-01T04:09:21;96355.75;;;20.24
6498;BMP280;3282;48.358;10.958;2022-08-01T04:11:48;96351.44;;;20.27
6498;BMP280;3282;48.358;10.958;2022-08-01T04:14:15;96352.53;;;20.29
6498;BMP280;3282;48.358;10.958;2022-08-01T04:16:41;96356.38;;;20.32
6498;BMP280;3282;48.358;10.958;2022-08-01T04:19:08;96353.59;;;20.36
6498;BMP280;3282;48.358;10.958;2022-08-01T04:21:35;96360.50;;;20.37
6498;BMP280;3282;48.358;10.958;2022-08-01T04:24:06;96358.25;;;20.35
6498;BMP280;3282;48.358;10.958;2022-08-01T04:26:34;96360.19;;;20.35
6498;BMP280;3282;48.358;10.958;2022-08-01T04:29:03;96362.50;;;20.36
6498;BMP280;3282;48.358;10.958;2022-08-01T04:31:31;96363.22;;;20.37
6498;BMP280;3282;48.358;10.958;2022-08-01T04:34:00;96359.22;;;20.41
6498;BMP280;3282;48.358;10.958;2022-08-01T04:36:28;96365.03;;;20.43
6498;BMP280;3282;48.358;10.958;2022-08-01T04:38:59;96365.44;;;20.42
6498;BMP280;3282;48.358;10.958;2022-08-01T04:41:27;96367.25;;;20.32
6498;BMP280;3282;48.358;10.958;2022-08-01T04:43:54;96367.16;;;20.36
6498;BMP280;3282;48.358;10.958;2022-08-01T04:46:22;96369.03;;;20.39
6498;BMP280;3282;48.358;10.958;2022-08-01T04:48:49;96364.94;;;20.47
6498;BMP280;3282;48.358;10.958;2022-08-01T04:51:17;96374.97;;;20.50
6498;BMP280;3282;48.358;10.958;2022-08-01T04:53:44;96370.72;;;20.49
6498;BMP280;3282;48.358;10.958;2022-08-01T04:56:12;96364.59;;;20.45
6498;BMP280;3282;48.358;10.958;2022-08-01T04:58:40;96357.91;;;20.50
6498;BMP280;3282;48.358;10.958;2022-08-01T05:01:08;96378.88;;;20.66
6498;BMP280;3282;48.358;10.958;2022-08-01T05:03:35;96384.91;;;20.74
6498;BMP280;3282;48.358;10.958;2022-08-01T05:06:05;96386.13;;;20.86
6498;BMP280;3282;48.358;10.958;2022-08-01T05:08:31;96393.59;;;20.98
6498;BMP280;3282;48.358;10.958;2022-08-01T05:10:58;96387.03;;;21.12
6498;BMP280;3282;48.358;10.958;2022-08-01T05:13:25;96389.72;;;21.42
6498;BMP280;3282;48.358;10.958;2022-08-01T05:15:51;96393.75;;;21.80
6498;BMP280;3282;48.358;10.958;2022-08-01T05:18:18;96374.13;;;22.11
6498;BMP280;3282;48.358;10.958;2022-08-01T05:20:53;96395.19;;;22.84
6498;BMP280;3282;48.358;10.958;2022-08-01T05:23:20;96385.34;;;23.32
6498;BMP280;3282;48.358;10.958;2022-08-01T05:26:06;96393.22;;;23.84
6498;BMP280;3282;48.358;10.958;2022-08-01T05:28:35;96387.94;;;24.40
6498;BMP280;3282;48.358;10.958;2022-08-01T05:31:02;96384.28;;;24.80
6498;BMP280;3282;48.358;10.958;2022-08-01T05:33:29;96391.38;;;25.34
6498;BMP280;3282;48.358;10.958;2022-08-01T05:35:55;96397.00;;;25.82
6498;BMP280;3282;48.358;10.958;2022-08-01T05:38:22;96399.41;;;26.23
6498;BMP280;3282;48.358;10.958;2022-08-01T05:40:49;96401.38;;;26.62
6498;BMP280;3282;48.358;10.958;2022-08-01T05:43:16;96406.78;;;27.11
6498;BMP280;3282;48.358;10.958;2022-08-01T05:45:42;96405.06;;;27.44
6498;BMP280;3282;48.358;10.958;2022-08-01T05:48:10;96406.41;;;27.84
6498;BMP280;3282;48.358;10.958;2022-08-01T05:50:37;96404.88;;;28.19
6498;BMP280;3282;48.358;10.958;2022-08-01T05:53:03;96392.97;;;28.48
6498;BMP280;3282;48.358;10.958;2022-08-01T05:55:30;96397.00;;;28.74
6498;BMP280;3282;48.358;10.958;2022-08-01T05:57:56;96401.28;;;29.07
6498;BMP280;3282;48.358;10.958;2022-08-01T06:00:23;96390.22;;;29.34
6498;BMP280;3282;48.358;10.958;2022-08-01T06:02:49;96400.88;;;29.52
6498;BMP280;3282;48.358;10.958;2022-08-01T06:05:16;96392.72;;;29.75
6498;BMP280;3282;48.358;10.958;2022-08-01T06:07:42;96408.19;;;30.10
6498;BMP280;3282;48.358;10.958;2022-08-01T06:10:09;96399.03;;;30.48
6498;BMP280;3282;48.358;10.958;2022-08-01T06:12:36;96410.91;;;30.71
6498;BMP280;3282;48.358;10.958;2022-08-01T06:15:04;96414.69;;;31.02
6498;BMP280;3282;48.358;10.958;2022-08-01T06:17:31;96415.69;;;31.39
6498;BMP280;3282;48.358;10.958;2022-08-01T06:19:58;96422.97;;;31.25
6498;BMP280;3282;48.358;10.958;2022-08-01T06:22:24;96414.91;;;31.44
6498;BMP280;3282;48.358;10.958;2022-08-01T06:24:51;96425.19;;;31.55
6498;BMP280;3282;48.358;10.958;2022-08-01T06:27:18;96429.94;;;31.71
6498;BMP280;3282;48.358;10.958;2022-08-01T06:29:48;96430.72;;;31.72
6498;BMP280;3282;48.358;10.958;2022-08-01T06:32:20;96425.63;;;31.93
6498;BMP280;3282;48.358;10.958;2022-08-01T06:34:54;96424.75;;;32.21
6498;BMP280;3282;48.358;10.958;2022-08-01T06:37:21;96420.78;;;32.11
6498;BMP280;3282;48.358;10.958;2022-08-01T06:39:48;96414.75;;;32.54
6498;BMP280;3282;48.358;10.958;2022-08-01T06:42:16;96419.25;;;33.49
6498;BMP280;3282;48.358;10.958;2022-08-01T06:44:43;96411.53;;;34.24
6498;BMP280;3282;48.358;10.958;2022-08-01T06:47:09;96406.28;;;34.86
6498;BMP280;3282;48.358;10.958;2022-08-01T06:49:36;96414.16;;;35.01
6498;BMP280;3282;48.358;10.958;2022-08-01T06:52:03;96419.19;;;35.83
6498;BMP280;3282;48.358;10.958;2022-08-01T06:54:30;96413.44;;;36.37
6498;BMP280;3282;48.358;10.958;2022-08-01T06:56:57;96411.03;;;36.84
6498;BMP280;3282;48.358;10.958;2022-08-01T06:59:23;96413.72;;;36.89
6498;BMP280;3282;48.358;10.958;2022-08-01T07:01:50;96409.28;;;36.94
6498;BMP280;3282;48.358;10.958;2022-08-01T07:04:16;96405.59;;;37.28
6498;BMP280;3282;48.358;10.958;2022-08-01T07:06:43;96414.16;;;37.30
6498;BMP280;3282;48.358;10.958;2022-08-01T07:09:09;96407.00;;;37.21
6498;BMP280;3282;48.358;10.958;2022-08-01T07:11:39;96407.69;;;37.35
6498;BMP280;3282;48.358;10.958;2022-08-01T07:14:07;96408.75;;;36.53
6498;BMP280;3282;48.358;10.958;2022-08-01T07:16:34;96409.28;;;36.94
6498;BMP280;3282;48.358;10.958;2022-08-01T07:19:01;96416.53;;;36.97
6498;BMP280;3282;48.358;10.958;2022-08-01T07:21:28;96414.88;;;37.23
6498;BMP280;3282;48.358;10.958;2022-08-01T07:24:11;96414.53;;;37.05
6498;BMP280;3282;48.358;10.958;2022-08-01T07:26:45;96415.34;;;36.85
6498;BMP280;3282;48.358;10.958;2022-08-01T07:29:24;96406.28;;;37.21
6498;BMP280;3282;48.358;10.958;2022-08-01T07:31:55;96409.72;;;37.35
6498;BMP280;3282;48.358;10.958;2022-08-01T07:34:23;96415.69;;;37.39
6498;BMP280;3282;48.358;10.958;2022-08-01T07:36:50;96415.38;;;37.21
6498;BMP280;3282;48.358;10.958;2022-08-01T07:39:17;96418.13;;;37.43
6498;BMP280;3282;48.358;10.958;2022-08-01T07:41:45;96416.63;;;37.13
6498;BMP280;3282;48.358;10.958;2022-08-01T07:44:32;96409.72;;;36.77
6498;BMP280;3282;48.358;10.958;2022-08-01T07:46:58;96415.13;;;37.12
6498;BMP280;3282;48.358;10.958;2022-08-01T07:49:25;96417.41;;;37.13
6498;BMP280;3282;48.358;10.958;2022-08-01T07:51:52;96416.44;;;37.40
6498;BMP280;3282;48.358;10.958;2022-08-01T07:54:31;96417.97;;;37.48
6498;BMP280;3282;48.358;10.958;2022-08-01T07:56:59;96409.59;;;37.48
6498;BMP280;3282;48.358;10.958;2022-08-01T07:59:26;96415.19;;;37.56
6498;BMP280;3282;48.358;10.958;2022-08-01T08:01:52;96410.25;;;37.78
6498;BMP280;3282;48.358;10.958;2022-08-01T08:04:19;96409.47;;;37.70
6498;BMP280;3282;48.358;10.958;2022-08-01T08:06:46;96411.56;;;37.32
6498;BMP280;3282;48.358;10.958;2022-08-01T08:09:14;96405.22;;;37.32
6498;BMP280;3282;48.358;10.958;2022-08-01T08:11:43;96412.16;;;37.10
6498;BMP280;3282;48.358;10.958;2022-08-01T08:14:13;96401.06;;;36.88
6498;BMP280;3282;48.358;10.958;2022-08-01T08:16:39;96405.66;;;36.86
6498;BMP280;3282;48.358;10.958;2022-08-01T08:19:06;96402.38;;;36.95
6498;BMP280;3282;48.358;10.958;2022-08-01T08:21:33;96402.63;;;36.76
6498;BMP280;3282;48.358;10.958;2022-08-01T08:24:00;96403.88;;;36.96
6498;BMP280;3282;48.358;10.958;2022-08-01T08:26:56;96393.38;;;37.10
6498;BMP280;3282;48.358;10.958;2022-08-01T08:29:23;96400.66;;;36.84
6498;BMP280;3282;48.358;10.958;2022-08-01T08:31:50;96395.63;;;37.12
6498;BMP280;3282;48.358;10.958;2022-08-01T08:34:19;96395.84;;;37.14
6498;BMP280;3282;48.358;10.958;2022-08-01T08:36:46;96403.34;;;36.98
6498;BMP280;3282;48.358;10.958;2022-08-01T08:39:15;96393.88;;;37.01
6498;BMP280;3282;48.358;10.958;2022-08-01T08:41:45;96394.00;;;36.66
6498;BMP280;3282;48.358;10.958;2022-08-01T08:44:15;96389.22;;;36.74
6498;BMP280;3282;48.358;10.958;2022-08-01T08:46:45;96398.63;;;36.63
6498;BMP280;3282;48.358;10.958;2022-08-01T08:49:18;96400.75;;;36.50
6498;BMP280;3282;48.358;10.958;2022-08-01T08:51:48;96397.31;;;36.22
6498;BMP280;3282;48.358;10.958;2022-08-01T08:54:16;96396.94;;;36.39
6498;BMP280;3282;48.358;10.958;2022-08-01T08:56:44;96398.19;;;36.38
6498;BMP280;3282;48.358;10.958;2022-08-01T08:59:12;96394.03;;;36.45
6498;BMP280;3282;48.358;10.958;2022-08-01T09:01:41;96394.81;;;36.74
6498;BMP280;3282;48.358;10.958;2022-08-01T09:04:08;96391.44;;;36.97
6498;BMP280;3282;48.358;10.958;2022-08-01T09:06:34;96398.38;;;37.04
6498;BMP280;3282;48.358;10.958;2022-08-01T09:09:01;96399.41;;;36.93
6498;BMP280;3282;48.358;10.958;2022-08-01T09:11:28;96400.69;;;36.92
6498;BMP280;3282;48.358;10.958;2022-08-01T09:14:02;96400.22;;;36.72
6498;BMP280;3282;48.358;10.958;2022-08-01T09:16:30;96406.84;;;36.69
6498;BMP280;3282;48.358;10.958;2022-08-01T09:19:19;96406.28;;;36.71
6498;BMP280;3282;48.358;10.958;2022-08-01T09:22:08;96403.56;;;36.79
6498;BMP280;3282;48.358;10.958;2022-08-01T09:24:36;96401.28;;;36.48
6498;BMP280;3282;48.358;10.958;2022-08-01T09:27:21;96399.16;;;36.20
6498;BMP280;3282;48.358;10.958;2022-08-01T09:29:52;96397.25;;;35.80
6498;BMP280;3282;48.358;10.958;2022-08-01T09:32:28;96408.53;;;35.47
6498;BMP280;3282;48.358;10.958;2022-08-01T09:35:26;96407.44;;;35.37
6498;BMP280;3282;48.358;10.958;2022-08-01T09:38:14;96401.44;;;35.33
6498;BMP280;3282;48.358;10.958;2022-08-01T09:40:49;96394.78;;;35.63
6498;BMP280;3282;48.358;10.958;2022-08-01T09:43:17;96400.78;;;35.53
6498;BMP280;3282;48.358;10.958;2022-08-01T09:45:45;96395.88;;;35.33
6498;BMP280;3282;48.358;10.958;2022-08-01T09:48:19;96403.97;;;34.25
6498;BMP280;3282;48.358;10.958;2022-08-01T09:50:50;96406.69;;;33.67
6498;BMP280;3282;48.358;10.958;2022-08-01T09:53:18;96402.22;;;34.03
6498;BMP280;3282;48.358;10.958;2022-08-01T09:56:08;96394.09;;;34.24
6498;BMP280;3282;48.358;10.958;2022-08-01T09:58:49;96403.84;;;34.50
6498;BMP280;3282;48.358;10.958;2022-08-01T10:01:24;96393.34;;;34.75
6498;BMP280;3282;48.358;10.958;2022-08-01T10:04:18;96398.69;;;34.40
6498;BMP280;3282;48.358;10.958;2022-08-01T10:06:46;96390.97;;;34.33
6498;BMP280;3282;48.358;10.958;2022-08-01T10:09:26;96390.78;;;33.68
6498;BMP280;3282;48.358;10.958;2022-08-01T10:12:06;96384.81;;;33.64
6498;BMP280;3282;48.358;10.958;2022-08-01T10:14:34;96386.78;;;33.69
6498;BMP280;3282;48.358;10.958;2022-08-01T10:17:03;96387.78;;;33.91
6498;BMP280;3282;48.358;10.958;2022-08-01T10:19:31;96386.91;;;34.15
6498;BMP280;3282;48.358;10.958;2022-08-01T10:22:00;96384.50;;;34.44
6498;BMP280;3282;48.358;10.958;2022-08-01T10:24:29;96387.88;;;34.69
6498;BMP280;3282;48.358;10.958;2022-08-01T10:27:02;96377.25;;;35.00
6498;BMP280;3282;48.358;10.958;2022-08-01T10:29:43;96371.13;;;35.02
6498;BMP280;3282;48.358;10.958;2022-08-01T10:32:30;96368.94;;;35.14
6498;BMP280;3282;48.358;10.958;2022-08-01T10:34:57;96374.25;;;35.39
6498;BMP280;3282;48.358;10.958;2022-08-01T10:37:33;96354.91;;;35.20
6498;BMP280;3282;48.358;10.958;2022-08-01T10:40:18;96366.88;;;35.14
6498;BMP280;3282;48.358;10.958;2022-08-01T10:43:01;96366.47;;;35.10
6498;BMP280;3282;48.358;10.958;2022-08-01T10:45:29;96361.53;;;35.16
6498;BMP280;3282;48.358;10.958;2022-08-01T10:48:09;96360.56;;;35.27
6498;BMP280;3282;48.358;10.958;2022-08-01T10:50:46;96349.13;;;35.17
6498;BMP280;3282;48.358;10.958;2022-08-01T10:53:22;96353.50;;;34.99
6498;BMP280;3282;48.358;10.958;2022-08-01T10:56:08;96346.22;;;34.83
6498;BMP280;3282;48.358;10.958;2022-08-01T10:58:43;96344.19;;;34.70
6498;BMP280;3282;48.358;10.958;2022-08-01T11:01:18;96349.66;;;34.89
6498;BMP280;3282;48.358;10.958;2022-08-01T11:04:13;96338.75;;;35.05
6498;BMP280;3282;48.358;10.958;2022-08-01T11:06:49;96332.53;;;35.12
6498;BMP280;3282;48.358;10.958;2022-08-01T11:14:33;96318.16;;;35.48
6498;BMP280;3282;48.358;10.958;2022-08-01T11:17:39;96329.31;;;35.35
6498;BMP280;3282;48.358;10.958;2022-08-01T11:20:14;96333.06;;;35.24
6498;BMP280;3282;48.358;10.958;2022-08-01T11:28:24;96334.88;;;33.83
6498;BMP280;3282;48.358;10.958;2022-08-01T11:41:41;96324.94;;;32.02
6498;BMP280;3282;48.358;10.958;2022-08-01T11:44:19;96340.19;;;31.73
6498;BMP280;3282;48.358;10.958;2022-08-01T11:47:01;96346.00;;;31.57
6498;BMP280;3282;48.358;10.958;2022-08-01T11:52:29;96332.78;;;31.27
6498;BMP280;3282;48.358;10.958;2022-08-01T11:55:01;96335.03;;;31.18
6498;BMP280;3282;48.358;10.958;2022-08-01T11:57:35;96321.00;;;31.10
6498;BMP280;3282;48.358;10.958;2022-08-01T12:00:16;96329.28;;;31.15
6498;BMP280;3282;48.358;10.958;2022-08-01T12:02:45;96332.03;;;31.10
6498;BMP280;3282;48.358;10.958;2022-08-01T12:05:14;96329.53;;;31.00
6498;BMP280;3282;48.358;10.958;2022-08-01T12:07:43;96330.28;;;31.12
6498;BMP280;3282;48.358;10.958;2022-08-01T12:10:16;96325.78;;;31.09
6498;BMP280;3282;48.358;10.958;2022-08-01T12:12:52;96325.53;;;31.13
6498;BMP280;3282;48.358;10.958;2022-08-01T12:15:22;96318.00;;;30.96
6498;BMP280;3282;48.358;10.958;2022-08-01T12:17:53;96320.00;;;30.90
6498;BMP280;3282;48.358;10.958;2022-08-01T12:20:33;96311.97;;;31.04
6498;BMP280;3282;48.358;10.958;2022-08-01T12:23:03;96317.69;;;31.11
6498;BMP280;3282;48.358;10.958;2022-08-01T12:25:32;96319.97;;;31.24
6498;BMP280;3282;48.358;10.958;2022-08-01T12:28:03;96321.94;;;31.29
6498;BMP280;3282;48.358;10.958;2022-08-01T12:30:31;96317.94;;;31.31
6498;BMP280;3282;48.358;10.958;2022-08-01T12:33:06;96311.66;;;31.36
6498;BMP280;3282;48.358;10.958;2022-08-01T12:35:35;96312.31;;;31.59
6498;BMP280;3282;48.358;10.958;2022-08-01T12:38:07;96316.75;;;31.79
6498;BMP280;3282;48.358;10.958;2022-08-01T12:40:44;96319.81;;;31.70
6498;BMP280;3282;48.358;10.958;2022-08-01T12:43:16;96318.56;;;31.65
6498;BMP280;3282;48.358;10.958;2022-08-01T12:45:55;96322.66;;;31.53
6498;BMP280;3282;48.358;10.958;2022-08-01T12:48:24;96323.91;;;31.52
6498;BMP280;3282;48.358;10.958;2022-08-01T12:50:52;96321.38;;;31.54
6498;BMP280;3282;48.358;10.958;2022-08-01T12:53:19;77880.53;;;-147.00
6498;BMP280;3282;48.358;10.958;2022-08-01T12:55:49;77880.53;;;-147.00
6498;BMP280;3282;48.358;10.958;2022-08-01T12:58:32;77880.53;;;-147.00
6498;BMP280;3282;48.358;10.958;2022-08-01T13:01:04;77880.53;;;-147.00
6498;BMP280;3282;48.358;10.958;2022-08-01T13:03:32;77880.53;;;-147.00
6498;BMP280;3282;48.358;10.958;2022-08-01T13:05:59;77880.53;;;-147.00
6498;BMP280;3282;48.358;10.958;2022-08-01T13:08:31;77880.53;;;-147.00
6498;BMP280;3282;48.358;10.958;2022-08-01T13:13:38;77880.53;;;-147.00
6498;BMP280;3282;48.358;10.958;2022-08-01T13:16:06;77880.53;;;-147.00
6498;BMP280;3282;48.358;10.958;2022-08-01T13:18:37;77880.53;;;-147.00
6498;BMP280;3282;48.358;10.958;2022-08-01T13:21:08;77880.53;;;-147.00
6498;BMP280;3282;48.358;10.958;2022-08-01T13:23:36;77880.53;;;-147.00
6498;BMP280;3282;48.358;10.958;2022-08-01T13:26:58;77880.53;;;-147.00
6498;BMP280;3282;48.358;10.958;2022-08-01T13:29:35;77880.53;;;-147.00
6498;BMP280;3282;48.358;10.958;2022-08-01T13:32:19;77880.53;;;-147.00
6498;BMP280;3282;48.358;10.958;2022-08-01T13:35:05;77880.53;;;-147.00
6498;BMP280;3282;48.358;10.958;2022-08-01T13:37:33;77880.53;;;-147.00
6498;BMP280;3282;48.358;10.958;2022-08-01T13:40:02;77880.53;;;-147.00
6498;BMP280;3282;48.358;10.958;2022-08-01T13:42:30;77880.53;;;-147.00
6498;BMP280;3282;48.358;10.958;2022-08-01T13:44:56;77880.53;;;-147.00
6498;BMP280;3282;48.358;10.958;2022-08-01T13:47:23;77880.53;;;-147.00
6498;BMP280;3282;48.358;10.958;2022-08-01T13:50:00;77880.53;;;-147.00
6498;BMP280;3282;48.358;10.958;2022-08-01T13:52:29;77880.53;;;-147.00
6498;BMP280;3282;48.358;10.958;2022-08-01T13:54:57;77880.53;;;-147.00
6498;BMP280;3282;48.358;10.958;2022-08-01T13:57:23;77880.53;;;-147.00
6498;BMP280;3282;48.358;10.958;2022-08-01T13:59:50;77880.53;;;-147.00
6498;BMP280;3282;48.358;10.958;2022-08-01T14:02:19;77880.53;;;-147.00
6498;BMP280;3282;48.358;10.958;2022-08-01T14:04:46;77880.53;;;-147.00
6498;BMP280;3282;48.358;10.958;2022-08-01T14:07:12;77880.53;;;-147.00
6498;BMP280;3282;48.358;10.958;2022-08-01T14:09:41;77880.53;;;-147.00
6498;BMP280;3282;48.358;10.958;2022-08-01T14:12:28;77880.53;;;-147.00
6498;BMP280;3282;48.358;10.958;2022-08-01T14:14:54;77880.53;;;-147.00
6498;BMP280;3282;48.358;10.958;2022-08-01T14:17:21;77880.53;;;-147.00
6498;BMP280;3282;48.358;10.958;2022-08-01T14:19:48;77880.53;;;-147.00
6498;BMP280;3282;48.358;10.958;2022-08-01T14:22:14;77880.53;;;-147.00
6498;BMP280;3282;48.358;10.958;2022-08-01T14:24:41;77880.53;;;-147.00
6498;BMP280;3282;48.358;10.958;2022-08-01T14:27:08;77880.53;;;-147.00
6498;BMP280;3282;48.358;10.958;2022-08-01T14:29:35;77880.53;;;-147.00
6498;BMP280;3282;48.358;10.958;2022-08-01T14:32:22;77880.53;;;-147.00
6498;BMP280;3282;48.358;10.958;2022-08-01T14:34:55;77880.53;;;-147.00
6498;BMP280;3282;48.358;10.958;2022-08-01T14:37:22;77880.53;;;-147.00
6498;BMP280;3282;48.358;10.958;2022-08-01T14:39:59;77880.53;;;-147.00
6498;BMP280;3282;48.358;10.958;2022-08-01T14:42:26;77880.53;;;-147.00
6498;BMP280;3282;48.358;10.958;2022-08-01T14:44:53;77880.53;;;-147.00
6498;BMP280;3282;48.358;10.958;2022-08-01T14:47:20;77880.53;;;-147.00
6498;BMP280;3282;48.358;10.958;2022-08-01T14:49:48;77880.53;;;-147.00
6498;BMP280;3282;48.358;10.958;2022-08-01T14:52:15;77880.53;;;-147.00
6498;BMP280;3282;48.358;10.958;2022-08-01T14:54:42;77880.53;;;-147.00
6498;BMP280;3282;48.358;10.958;2022-08-01T14:57:09;77880.53;;;-147.00
6498;BMP280;3282;48.358;10.958;2022-08-01T14:59:35;77880.53;;;-147.00
6498;BMP280;3282;48.358;10.958;2022-08-01T15:02:02;77880.53;;;-147.00
6498;BMP280;3282;48.358;10.958;2022-08-01T15:04:30;77880.53;;;-147.00
6498;BMP280;3282;48.358;10.958;2022-08-01T15:06:56;77880.53;;;-147.00
6498;BMP280;3282;48.358;10.958;2022-08-01T15:09:23;77880.53;;;-147.00
6498;BMP280;3282;48.358;10.958;2022-08-01T15:11:50;77880.53;;;-147.00
6498;BMP280;3282;48.358;10.958;2022-08-01T15:14:16;77880.53;;;-147.00
6498;BMP280;3282;48.358;10.958;2022-08-01T15:17:01;77880.53;;;-147.00